Time;durP1;ratioP1;P1;durP2;ratioP2;P2;SDS_P1;SDS_P2;PMS_P1;PMS_P2;Temp;Humidity;BMP_temperature;BMP_pressure;BME280_temperature;BME280_humidity;BME280_pressure;Samples;Min_cycle;Max_cycle;Signal;HPM_P1;HPM_P2
2022/10/31 00:00:27;;;;;;;7.57;2.67;;;;;;;18.00;43.11;99929.63;5052189;28;20032;-41
2022/10/31 00:02:53;;;;;;;8.70;2.70;;;;;;;18.32;42.07;99925.22;5051814;28;20032;-41
2022/10/31 00:05:18;;;;;;;7.22;2.88;;;;;;;18.22;42.47;99917.03;5051596;28;20094;-42
2022/10/31 00:07:44;;;;;;;5.43;2.60;;;;;;;18.48;41.82;99920.03;5051721;28;20021;-42
2022/10/31 00:10:09;;;;;;;8.73;2.88;;;;;;;18.54;41.70;99921.69;5051944;28;20029;-41
2022/10/31 00:12:34;;;;;;;4.78;2.63;;;;;;;18.35;42.04;99919.34;5052075;28;20025;-42
2022/10/31 00:15:00;;;;;;;5.85;2.50;;;;;;;18.42;42.07;99912.94;5051722;28;20095;-42
2022/10/31 00:17:25;;;;;;;7.32;2.40;;;;;;;18.54;41.73;99916.31;5051398;28;20021;-42
2022/10/31 00:19:51;;;;;;;5.18;2.75;;;;;;;18.28;42.51;99915.22;5051695;28;20104;-41
2022/10/31 00:22:16;;;;;;;11.25;3.15;;;;;;;18.51;41.73;99906.06;5050709;28;20033;-42
2022/10/31 00:24:41;;;;;;;5.20;2.80;;;;;;;18.56;41.88;99915.00;5051328;28;20057;-41
2022/10/31 00:27:07;;;;;;;5.78;2.63;;;;;;;18.76;41.44;99909.03;5051463;28;20051;-42
2022/10/31 00:29:32;;;;;;;5.72;2.55;;;;;;;18.59;41.94;99919.06;5051403;28;20036;-41
2022/10/31 00:31:58;;;;;;;6.10;2.70;;;;;;;18.61;41.99;99916.94;5050962;28;20053;-42
2022/10/31 00:34:23;;;;;;;7.03;3.10;;;;;;;18.71;41.63;99921.63;5051353;28;20618;-40
2022/10/31 00:36:48;;;;;;;9.77;2.83;;;;;;;18.89;41.13;99920.50;5051437;28;20083;-41
2022/10/31 00:39:14;;;;;;;5.35;2.63;;;;;;;18.73;41.63;99911.41;5051274;28;20025;-41
2022/10/31 00:41:39;;;;;;;6.55;2.80;;;;;;;18.61;41.69;99927.72;5051411;28;20107;-42
2022/10/31 00:44:05;;;;;;;8.65;2.92;;;;;;;18.63;41.74;99930.97;5052112;28;20020;-42
2022/10/31 00:46:30;;;;;;;6.07;2.90;;;;;;;18.31;42.69;99925.47;5051966;28;20048;-42
2022/10/31 00:48:55;;;;;;;7.72;2.92;;;;;;;18.52;41.90;99932.75;5051835;28;20346;-42
2022/10/31 00:51:21;;;;;;;4.82;2.50;;;;;;;18.41;42.34;99927.47;5051937;28;20079;-42
2022/10/31 00:53:46;;;;;;;5.93;2.60;;;;;;;18.50;42.01;99929.47;5051651;28;20055;-41
2022/10/31 00:56:12;;;;;;;5.30;2.90;;;;;;;18.41;42.39;99908.63;5051619;28;20029;-41
2022/10/31 00:58:37;;;;;;;7.05;2.65;;;;;;;18.95;41.22;99916.78;5051712;28;20103;-42
2022/10/31 01:01:04;;;;;;;4.93;2.45;;;;;;;18.54;41.90;99922.53;5051872;28;20025;-42
2022/10/31 01:03:32;;;;;;;6.63;2.70;;;;;;;18.63;41.60;99912.09;5051771;28;20024;-42
2022/10/31 01:05:59;;;;;;;7.15;3.45;;;;;;;18.95;40.86;99909.50;5051470;28;20033;-42
2022/10/31 01:08:25;;;;;;;7.22;2.55;;;;;;;19.07;40.89;99903.97;5051827;28;20036;-42
2022/10/31 01:11:17;;;;;;;5.80;2.63;;;;;;;18.87;41.09;99893.00;5051595;28;20033;-42
2022/10/31 01:13:43;;;;;;;6.45;2.60;;;;;;;18.99;40.93;99898.22;5051124;28;20052;-42
2022/10/31 01:16:12;;;;;;;6.22;2.78;;;;;;;19.24;40.40;99905.72;5051235;28;20029;-42
2022/10/31 01:18:38;;;;;;;5.68;2.45;;;;;;;19.06;40.67;99899.66;5051179;28;20028;-41
2022/10/31 01:21:07;;;;;;;4.75;2.70;;;;;;;19.28;40.37;99907.66;5051352;28;20032;-41
2022/10/31 01:23:32;;;;;;;10.20;2.88;;;;;;;19.12;40.93;99906.72;5051045;28;20059;-41
2022/10/31 01:26:06;;;;;;;5.05;2.70;;;;;;;19.47;39.84;99899.16;5051361;28;20103;-41
2022/10/31 01:28:31;;;;;;;6.72;2.70;;;;;;;19.64;39.57;99896.31;5051094;28;20025;-41
2022/10/31 01:31:01;;;;;;;5.22;2.65;;;;;;;19.94;39.12;99900.31;5051365;28;20219;-41
2022/10/31 01:33:26;;;;;;;;;;;;;;;19.83;39.43;99896.75;5051487;28;20025;-41
2022/10/31 01:35:51;;;;;;;7.38;2.50;;;;;;;19.58;39.48;99889.28;5051079;28;19937;-41
2022/10/31 01:38:17;;;;;;;8.07;2.70;;;;;;;19.49;39.71;99902.41;5051005;28;20099;-42
2022/10/31 01:40:42;;;;;;;8.20;2.95;;;;;;;19.59;39.66;99894.41;5051210;28;20389;-41
2022/10/31 01:43:12;;;;;;;5.25;2.63;;;;;;;19.59;39.61;99896.28;5051293;28;20472;-42
2022/10/31 01:45:38;;;;;;;6.43;2.80;;;;;;;19.62;39.72;99899.28;5050934;28;20021;-41
2022/10/31 01:48:03;;;;;;;6.50;2.65;;;;;;;19.67;39.47;99903.91;5050565;28;20024;-41
2022/10/31 01:50:37;;;;;;;5.10;2.47;;;;;;;19.72;39.05;99901.25;5050844;28;20500;-42
2022/10/31 01:53:07;;;;;;;4.35;2.53;;;;;;;19.57;39.82;99901.94;5050716;28;20031;-42
2022/10/31 01:55:37;;;;;;;5.32;2.60;;;;;;;19.76;39.03;99899.66;5050439;28;20067;-42
2022/10/31 01:58:13;;;;;;;9.52;2.65;;;;;;;20.07;38.69;99902.56;5050766;28;20102;-42
2022/10/31 02:00:41;;;;;;;8.35;2.55;;;;;;;19.76;38.84;99859.16;5050483;28;20055;-42
2022/10/31 02:03:06;;;;;;;7.05;2.60;;;;;;;19.53;39.42;99896.25;5050726;28;20473;-42
2022/10/31 02:05:32;;;;;;;6.95;2.58;;;;;;;19.68;39.18;99897.44;5050343;28;20025;-42
2022/10/31 02:08:10;;;;;;;6.82;2.70;;;;;;;19.78;38.94;99905.63;5050837;28;20025;-42
2022/10/31 02:10:36;;;;;;;4.80;2.70;;;;;;;19.89;39.28;99901.91;5050690;28;20025;-42
2022/10/31 02:13:04;;;;;;;7.65;2.70;;;;;;;19.70;38.92;99887.19;5050961;28;20079;-42
2022/10/31 02:15:31;;;;;;;10.38;2.85;;;;;;;19.41;39.53;99887.53;5050708;28;20021;-42
2022/10/31 02:17:57;;;;;;;5.32;2.60;;;;;;;19.32;39.95;99887.19;5050670;28;20027;-42
2022/10/31 02:20:25;;;;;;;12.20;2.53;;;;;;;19.49;39.52;99864.63;5050353;28;20107;-42
2022/10/31 02:23:19;;;;;;;9.38;2.90;;;;;;;19.34;39.52;99886.91;5050245;28;20124;-41
2022/10/31 02:26:02;;;;;;;9.52;2.70;;;;;;;19.53;39.32;99887.31;5050600;28;20028;-42
2022/10/31 02:28:33;;;;;;;6.60;2.53;;;;;;;19.51;39.60;99874.13;5050354;28;20024;-42
2022/10/31 02:31:03;;;;;;;8.02;2.95;;;;;;;19.85;38.92;99873.78;5050713;28;20024;-42
2022/10/31 02:33:50;;;;;;;8.40;2.40;;;;;;;19.85;38.97;99875.69;5050332;28;20033;-41
2022/10/31 02:36:25;;;;;;;14.13;3.00;;;;;;;19.81;38.70;99880.00;5050584;28;20025;-42
2022/10/31 02:39:22;;;;;;;10.35;2.95;;;;;;;19.71;38.84;99884.22;5050583;28;20029;-42
2022/10/31 02:41:51;;;;;;;5.32;2.40;;;;;;;19.66;39.03;99883.38;5036081;28;20040;-41
2022/10/31 02:44:33;;;;;;;9.73;2.47;;;;;;;19.58;39.21;99892.78;5050417;28;20122;-42
2022/10/31 02:47:08;;;;;;;7.03;2.53;;;;;;;19.52;39.29;99888.41;5034403;28;20052;-42
2022/10/31 02:49:40;;;;;;;7.85;2.85;;;;;;;19.75;38.85;99894.53;5034318;28;20022;-42
2022/10/31 02:52:26;;;;;;;18.48;2.75;;;;;;;19.75;39.22;99905.34;5034223;28;20091;-42
2022/10/31 02:54:52;;;;;;;17.05;3.03;;;;;;;19.66;39.15;99894.97;5034146;28;20026;-42
2022/10/31 02:57:37;;;;;;;9.63;2.90;;;;;;;19.78;38.90;99897.53;5034041;28;20182;-41
2022/10/31 03:00:08;;;;;;;6.90;2.50;;;;;;;19.70;39.08;99917.72;5033970;28;20720;-42
2022/10/31 03:03:18;;;;;;;5.28;2.50;;;;;;;19.85;39.07;99911.59;5034109;28;20021;-41
2022/10/31 03:06:07;;;;;;;5.85;2.65;;;;;;;19.83;38.79;99915.66;5028929;28;20493;-42
2022/10/31 03:08:42;;;;;;;7.53;2.40;;;;;;;20.01;38.47;99917.94;5034202;28;20026;-41
2022/10/31 03:11:09;;;;;;;8.57;2.55;;;;;;;20.21;38.28;99924.50;5033821;28;20025;-41
2022/10/31 03:13:43;;;;;;;5.72;2.55;;;;;;;20.14;38.34;99924.72;5033488;28;20476;-41
2022/10/31 03:16:17;;;;;;;9.18;2.85;;;;;;;20.00;38.90;99924.38;5033708;28;20025;-41
2022/10/31 03:19:01;;;;;;;6.95;2.45;;;;;;;20.17;38.31;99924.22;5033532;28;20086;-41
2022/10/31 03:21:37;;;;;;;4.38;2.35;;;;;;;20.03;38.79;99933.84;5033274;28;20057;-41
2022/10/31 03:24:06;;;;;;;6.32;2.17;;;;;;;20.00;38.80;99937.88;5033536;28;20528;-43
2022/10/31 03:26:33;;;;;;;5.13;2.42;;;;;;;20.02;38.84;99932.22;5033595;28;20049;-41
2022/10/31 03:29:04;;;;;;;6.85;2.50;;;;;;;20.06;38.90;99939.53;5033462;28;20036;-42
2022/10/31 03:31:35;;;;;;;5.85;2.53;;;;;;;20.09;38.48;99946.31;5033300;28;20095;-42
2022/10/31 03:34:02;;;;;;;9.68;2.60;;;;;;;20.29;38.53;99953.72;5033354;28;20017;-43
2022/10/31 03:36:31;;;;;;;6.75;2.40;;;;;;;20.35;38.38;99968.88;5033680;28;20029;-44
2022/10/31 03:39:01;;;;;;;7.43;2.65;;;;;;;19.97;38.97;99968.13;5033400;28;20029;-44
2022/10/31 03:41:31;;;;;;;5.28;2.58;;;;;;;19.91;39.09;99964.59;5033425;28;20465;-41
2022/10/31 03:44:08;;;;;;;6.15;2.22;;;;;;;20.18;38.78;99960.97;5033280;28;20103;-43
2022/10/31 03:46:34;;;;;;;5.45;2.20;;;;;;;20.34;38.43;99974.56;5051842;28;20017;-42
2022/10/31 03:49:00;;;;;;;5.38;2.67;;;;;;;20.63;37.77;99970.38;5053058;28;20500;-41
2022/10/31 03:51:40;;;;;;;4.70;2.70;;;;;;;20.81;37.39;99962.88;5053117;28;20025;-42
2022/10/31 03:54:16;;;;;;;7.90;2.47;;;;;;;20.57;37.85;99967.91;5053062;28;20029;-42
2022/10/31 03:56:53;;;;;;;4.03;2.60;;;;;;;20.13;38.66;99971.75;5052725;28;20032;-42
2022/10/31 03:59:49;;;;;;;7.32;2.38;;;;;;;20.18;38.57;99974.47;5053174;28;20021;-42
2022/10/31 04:02:18;;;;;;;9.02;2.83;;;;;;;20.04;38.79;99967.91;5052506;28;20025;-41
2022/10/31 04:04:45;;;;;;;9.35;2.60;;;;;;;19.92;39.05;99971.59;5053183;28;20031;-41
2022/10/31 04:07:12;;;;;;;8.55;4.35;;;;;;;19.89;39.17;99977.50;5052704;28;20037;-41
2022/10/31 04:09:43;;;;;;;5.85;3.03;;;;;;;20.08;38.77;99974.41;5052854;28;20090;-41
2022/10/31 04:12:11;;;;;;;8.07;3.22;;;;;;;19.81;39.36;99980.69;5052393;28;20032;-41
2022/10/31 04:14:39;;;;;;;4.57;2.70;;;;;;;19.77;39.54;99976.91;5052245;28;20436;-42
2022/10/31 04:17:09;;;;;;;16.50;2.90;;;;;;;19.92;39.13;99971.59;5051998;28;20453;-41
2022/10/31 04:19:35;;;;;;;4.88;2.50;;;;;;;20.13;38.82;99977.16;5052527;28;20029;-43
2022/10/31 04:22:00;;;;;;;7.38;2.80;;;;;;;19.87;38.95;99985.06;5052240;28;20085;-42
2022/10/31 04:24:26;;;;;;;7.80;2.67;;;;;;;19.89;39.27;99984.81;5051941;28;20098;-41
2022/10/31 04:26:51;;;;;;;9.13;2.85;;;;;;;20.01;39.15;99990.00;5052133;28;20021;-41
2022/10/31 04:29:17;;;;;;;7.07;3.10;;;;;;;19.89;39.12;99992.91;5052319;28;20166;-42
2022/10/31 04:31:42;;;;;;;5.97;2.63;;;;;;;19.82;39.23;99986.91;5052180;28;20103;-41
2022/10/31 04:34:07;;;;;;;8.07;2.53;;;;;;;19.66;39.58;99986.75;5052180;28;20494;-42
2022/10/31 04:36:33;;;;;;;9.07;3.08;;;;;;;19.54;39.95;99986.94;5052083;28;20025;-41
2022/10/31 04:38:58;;;;;;;11.98;4.97;;;;;;;19.88;39.24;99986.69;5051909;28;20020;-40
2022/10/31 04:41:24;;;;;;;15.93;10.10;;;;;;;20.01;39.01;99979.22;5051819;28;20385;-42
2022/10/31 04:43:49;;;;;;;7.57;3.00;;;;;;;20.12;39.03;99999.81;5052221;28;20060;-42
2022/10/31 04:46:15;;;;;;;4.78;2.58;;;;;;;19.44;40.09;99991.41;5051924;28;20021;-41
2022/10/31 04:48:40;;;;;;;8.02;2.63;;;;;;;19.41;40.18;100006.25;5051989;28;20122;-42
2022/10/31 04:51:05;;;;;;;11.82;2.90;;;;;;;19.17;40.84;100007.63;5051285;28;20389;-41
2022/10/31 04:53:31;;;;;;;7.60;2.72;;;;;;;19.40;40.22;100011.91;5052079;28;20025;-42
2022/10/31 04:55:59;;;;;;;8.05;2.70;;;;;;;19.40;40.33;100023.53;5051924;28;20107;-41
2022/10/31 04:58:24;;;;;;;6.93;2.85;;;;;;;19.17;40.85;100021.91;5051803;28;20401;-42
2022/10/31 05:00:54;;;;;;;8.90;2.80;;;;;;;19.35;40.61;100028.88;5052018;28;20082;-41
2022/10/31 05:03:20;;;;;;;6.30;2.60;;;;;;;19.36;40.76;100019.69;5051949;28;20469;-41
2022/10/31 05:05:45;;;;;;;5.70;2.80;;;;;;;19.33;40.52;100033.69;5051810;28;20029;-41
2022/10/31 05:08:10;;;;;;;10.10;2.95;;;;;;;19.50;40.23;100034.41;5051495;28;20024;-42
2022/10/31 05:10:36;;;;;;;6.65;2.70;;;;;;;18.86;41.46;100031.56;5051275;28;20500;-42
2022/10/31 05:13:03;;;;;;;6.32;3.03;;;;;;;19.15;41.04;100026.75;5051868;28;20434;-41
2022/10/31 05:15:29;;;;;;;9.02;2.95;;;;;;;19.19;40.95;100032.47;5051647;28;20040;-41
2022/10/31 05:17:56;;;;;;;8.23;2.90;;;;;;;19.07;41.39;100035.31;5051422;28;20127;-41
2022/10/31 05:20:24;;;;;;;8.93;3.05;;;;;;;18.83;41.38;100049.06;5051434;28;20090;-41
2022/10/31 05:22:52;;;;;;;8.00;2.90;;;;;;;19.07;41.30;100044.19;5051537;28;20039;-41
2022/10/31 05:25:18;;;;;;;6.70;2.72;;;;;;;19.40;40.78;100049.66;5051069;28;20121;-41
2022/10/31 05:27:47;;;;;;;8.13;2.83;;;;;;;19.31;41.05;100055.53;5040282;28;20485;-42
2022/10/31 05:30:15;;;;;;;8.27;3.03;;;;;;;19.43;40.49;100055.38;5050928;28;20104;-42
2022/10/31 05:32:46;;;;;;;9.32;3.05;;;;;;;19.30;41.15;100053.88;5057373;28;20020;-42
2022/10/31 05:35:14;;;;;;;18.15;10.52;;;;;;;19.39;40.98;100053.47;5070330;28;20024;-41
2022/10/31 05:37:39;;;;;;;8.05;3.10;;;;;;;19.53;40.60;100063.59;5067687;28;20085;-41
2022/10/31 05:40:08;;;;;;;12.07;3.13;;;;;;;19.49;40.62;100067.03;5070125;28;20029;-41
2022/10/31 05:42:33;;;;;;;8.02;3.20;;;;;;;19.32;41.27;100065.28;5070716;28;20504;-41
2022/10/31 05:44:59;;;;;;;7.55;3.08;;;;;;;19.51;41.46;100071.13;5064162;28;20116;-42
2022/10/31 05:47:24;;;;;;;10.00;3.50;;;;;;;19.62;41.59;100071.22;5050777;28;20021;-40
2022/10/31 05:49:50;;;;;;;9.65;3.08;;;;;;;19.93;43.78;100072.34;5050608;28;20029;-44
2022/10/31 05:52:16;;;;;;;8.05;2.80;;;;;;;20.33;40.99;100078.31;5050879;28;20050;-42
2022/10/31 05:54:41;;;;;;;13.63;5.03;;;;;;;20.28;39.92;100082.59;5051150;28;20432;-42
2022/10/31 05:57:07;;;;;;;17.27;5.90;;;;;;;20.30;39.56;100085.88;5050816;28;20029;-43
2022/10/31 05:59:32;;;;;;;9.15;3.00;;;;;;;20.25;39.62;100088.53;5050124;28;20121;-41
2022/10/31 06:01:57;;;;;;;9.88;2.83;;;;;;;20.02;40.03;100087.00;5049553;28;20025;-42
2022/10/31 06:04:23;;;;;;;12.25;3.08;;;;;;;20.04;40.51;100092.94;5050463;28;20033;-42
2022/10/31 06:06:48;;;;;;;8.63;3.03;;;;;;;20.25;39.75;100098.53;5049988;28;20075;-41
2022/10/31 06:09:14;;;;;;;5.60;2.70;;;;;;;20.35;39.76;100103.19;5049906;28;20021;-42
2022/10/31 06:11:39;;;;;;;7.15;2.90;;;;;;;20.58;39.41;100108.22;5049837;28;20226;-44
2022/10/31 06:14:05;;;;;;;7.28;3.22;;;;;;;20.38;39.99;100108.88;5050010;28;20033;-42
2022/10/31 06:16:30;;;;;;;8.27;4.28;;;;;;;20.28;40.17;100104.22;5049776;28;20029;-41
2022/10/31 06:18:56;;;;;;;11.20;3.88;;;;;;;20.48;39.82;100110.84;5050170;28;20029;-42
2022/10/31 06:21:21;;;;;;;8.80;3.00;;;;;;;20.40;39.94;100108.63;5053270;28;20028;-44
2022/10/31 06:23:47;;;;;;;5.97;2.97;;;;;;;20.38;39.67;100113.50;5069227;28;20067;-42
2022/10/31 06:26:12;;;;;;;13.15;3.50;;;;;;;20.36;40.38;100110.22;5073959;28;20081;-41
2022/10/31 06:28:37;;;;;;;13.70;3.35;;;;;;;20.22;40.09;100116.06;5071427;28;20024;-43
2022/10/31 06:31:03;;;;;;;8.93;3.13;;;;;;;20.54;39.74;100117.91;5054269;28;20077;-42
2022/10/31 06:33:28;;;;;;;7.15;2.90;;;;;;;21.02;39.10;100121.47;5055953;28;20043;-41
2022/10/31 06:35:54;;;;;;;8.80;3.20;;;;;;;21.79;37.99;100110.88;5054160;28;20112;-41
2022/10/31 06:38:19;;;;;;;9.93;3.30;;;;;;;22.50;36.75;100128.25;5054205;28;20029;-41
2022/10/31 06:40:45;;;;;;;11.05;3.35;;;;;;;22.74;36.56;100125.78;5054147;28;20053;-41
2022/10/31 06:43:11;;;;;;;11.27;2.83;;;;;;;23.37;35.43;100129.94;5054500;28;20036;-41
2022/10/31 06:45:36;;;;;;;10.57;2.80;;;;;;;23.62;34.92;100127.06;5053862;28;20025;-44
2022/10/31 06:48:03;;;;;;;9.60;3.00;;;;;;;24.33;33.72;100130.38;5054288;28;20378;-43
2022/10/31 06:50:28;;;;;;;7.70;2.60;;;;;;;24.47;33.61;100127.78;5056874;28;20029;-41
2022/10/31 06:52:56;;;;;;;9.45;2.90;;;;;;;25.06;32.66;100122.31;5069427;28;20032;-42
2022/10/31 06:55:22;;;;;;;11.75;3.05;;;;;;;25.22;32.45;100125.63;5068811;28;20488;-42
2022/10/31 06:57:55;;;;;;;7.10;2.97;;;;;;;25.37;32.07;100117.28;5053446;28;20048;-43
2022/10/31 07:00:22;;;;;;;6.55;2.70;;;;;;;25.93;31.18;100123.84;5053359;28;20584;-44
2022/10/31 07:03:01;;;;;;;6.43;2.97;;;;;;;26.15;31.04;100123.25;5053478;28;20051;-45
2022/10/31 07:05:28;;;;;;;11.50;3.00;;;;;;;26.28;30.49;100118.94;5050931;28;20029;-43
2022/10/31 07:07:58;;;;;;;9.02;2.95;;;;;;;26.23;30.47;100125.28;5053520;28;20029;-42
2022/10/31 07:10:25;;;;;;;11.90;3.08;;;;;;;26.08;30.85;100120.91;5053541;28;20021;-43
2022/10/31 07:13:03;;;;;;;9.75;2.85;;;;;;;26.19;30.36;100118.00;5052869;28;20025;-42
2022/10/31 07:15:32;;;;;;;9.25;2.78;;;;;;;26.71;30.08;100127.72;5053550;28;20024;-42
2022/10/31 07:18:02;;;;;;;5.10;2.60;;;;;;;26.92;29.35;100119.97;5050554;28;20049;-42
2022/10/31 07:20:28;;;;;;;8.98;2.50;;;;;;;26.91;29.46;100133.91;5053252;28;20060;-43
2022/10/31 07:22:54;;;;;;;9.32;2.83;;;;;;;26.82;29.60;100128.31;5053548;28;20082;-43
2022/10/31 07:25:20;;;;;;;5.18;2.70;;;;;;;26.85;29.78;100122.28;5053507;28;20033;-43
2022/10/31 07:27:45;;;;;;;6.72;2.50;;;;;;;27.55;28.81;100127.66;5053547;28;20425;-43
2022/10/31 07:30:12;;;;;;;12.38;3.47;;;;;;;27.45;28.86;100126.78;5053603;28;20374;-43
2022/10/31 07:32:42;;;;;;;11.38;2.88;;;;;;;27.62;28.55;100128.06;5052094;28;20197;-42
2022/10/31 07:35:10;;;;;;;10.27;2.90;;;;;;;27.58;28.64;100124.34;5051460;28;20075;-43
2022/10/31 07:37:36;;;;;;;7.75;2.88;;;;;;;27.73;28.62;100132.19;5051987;28;20013;-43
2022/10/31 07:40:03;;;;;;;10.95;2.70;;;;;;;28.32;27.67;100120.41;5052420;28;20025;-44
2022/10/31 07:42:29;;;;;;;9.50;2.60;;;;;;;28.16;27.78;100130.91;5049845;28;20028;-43
2022/10/31 07:44:54;;;;;;;5.30;2.58;;;;;;;27.91;28.09;100126.88;5052324;28;20029;-44
2022/10/31 07:47:20;;;;;;;10.32;2.63;;;;;;;28.04;27.87;100129.53;5052414;28;20117;-41
2022/10/31 07:49:45;;;;;;;6.13;2.67;;;;;;;28.20;27.61;100129.19;5052030;28;20033;-42
2022/10/31 07:52:10;;;;;;;9.48;2.75;;;;;;;28.12;27.71;100122.53;5048469;28;20166;-42
2022/10/31 07:54:36;;;;;;;9.45;2.83;;;;;;;28.01;27.97;100134.84;5046088;28;20036;-43
2022/10/31 07:57:02;;;;;;;8.80;2.90;;;;;;;28.20;27.85;100099.09;5049880;28;20029;-44
2022/10/31 07:59:27;;;;;;;11.55;3.22;;;;;;;28.14;27.99;100130.41;5051400;28;20540;-43
2022/10/31 08:01:53;;;;;;;8.70;3.00;;;;;;;28.23;27.90;100134.00;5051212;28;20063;-43
2022/10/31 08:04:18;;;;;;;6.65;2.83;;;;;;;28.85;27.35;100128.56;5050256;28;20029;-44
2022/10/31 08:06:44;;;;;;;5.90;2.95;;;;;;;29.31;26.47;100125.66;5052340;28;20033;-43
2022/10/31 08:09:09;;;;;;;7.72;3.20;;;;;;;28.89;26.95;100123.25;5053041;28;20028;-41
2022/10/31 08:11:35;;;;;;;13.00;3.03;;;;;;;28.82;26.92;100110.00;5050717;28;20124;-44
2022/10/31 08:14:00;;;;;;;7.45;2.80;;;;;;;28.82;27.36;100115.47;5050409;28;20048;-38
2022/10/31 08:16:26;;;;;;;11.00;3.00;;;;;;;29.16;26.75;100122.22;5047953;28;20095;-44
2022/10/31 08:18:54;;;;;;;7.47;2.95;;;;;;;29.50;26.37;100123.41;5047819;28;20079;-44
2022/10/31 08:21:19;;;;;;;8.02;2.92;;;;;;;29.34;26.63;100123.06;5052273;28;20467;-44
2022/10/31 08:23:44;;;;;;;9.88;2.92;;;;;;;29.61;26.97;100127.44;5051933;28;20053;-45
2022/10/31 08:26:10;;;;;;;9.40;3.17;;;;;;;29.88;26.44;100124.72;5052093;28;20020;-42
2022/10/31 08:28:35;;;;;;;5.97;3.35;;;;;;;29.06;26.64;100122.50;5051580;28;20082;-37
2022/10/31 08:31:01;;;;;;;6.50;2.55;;;;;;;29.33;26.60;100123.41;5051830;28;20120;-37
2022/10/31 08:33:26;;;;;;;5.20;2.80;;;;;;;29.56;26.17;100124.84;5051341;28;20021;-37
2022/10/31 08:35:51;;;;;;;11.85;2.90;;;;;;;29.83;25.73;100122.94;5051464;28;20031;-37
2022/10/31 08:38:17;;;;;;;11.02;3.05;;;;;;;29.70;26.21;100119.22;5051197;28;20033;-36
2022/10/31 08:40:42;;;;;;;6.53;2.80;;;;;;;29.89;25.55;100120.84;5051168;28;20166;-37
2022/10/31 08:43:16;;;;;;;5.75;2.70;;;;;;;30.36;25.19;100129.19;5050465;28;20029;-37
2022/10/31 08:45:43;;;;;;;10.45;2.97;;;;;;;30.53;25.15;100120.91;5051149;28;20120;-37
2022/10/31 08:48:14;;;;;;;6.57;2.90;;;;;;;30.63;25.04;100127.97;5051027;28;20477;-36
2022/10/31 08:50:40;;;;;;;9.43;3.00;;;;;;;30.90;23.95;100123.19;5051059;28;20043;-36
2022/10/31 08:53:17;;;;;;;7.13;2.70;;;;;;;30.26;24.70;100127.56;5050994;28;20400;-36
2022/10/31 08:55:44;;;;;;;4.50;2.50;;;;;;;30.60;24.06;100123.16;5051055;28;20050;-36
2022/10/31 08:58:13;;;;;;;6.10;2.67;;;;;;;30.59;24.92;100116.81;5049844;28;20037;-37
2022/10/31 09:00:39;;;;;;;9.80;3.22;;;;;;;31.33;23.98;100124.88;5051648;28;20024;-37
2022/10/31 09:03:08;;;;;;;5.57;3.15;;;;;;;31.64;23.19;100123.69;5050320;28;20036;-37
2022/10/31 09:05:34;;;;;;;5.80;2.60;;;;;;;31.04;23.46;100126.53;5051339;28;20032;-37
2022/10/31 09:08:01;;;;;;;5.10;2.80;;;;;;;31.03;23.30;100118.59;5051094;28;20028;-36
2022/10/31 09:10:28;;;;;;;5.30;2.53;;;;;;;31.45;23.14;100126.88;5050588;28;20412;-37
2022/10/31 09:13:03;;;;;;;9.02;3.05;;;;;;;31.52;23.45;100133.50;5050625;28;20044;-37
2022/10/31 09:15:30;;;;;;;7.72;2.80;;;;;;;31.85;23.30;100134.69;5050555;28;20052;-37
2022/10/31 09:17:56;;;;;;;6.82;3.15;;;;;;;31.72;23.06;100133.81;5050916;28;20135;-38
2022/10/31 09:20:22;;;;;;;6.32;2.83;;;;;;;31.16;23.56;100128.53;5050059;28;20055;-37
2022/10/31 09:22:47;;;;;;;8.00;3.03;;;;;;;30.20;24.21;100123.41;5049678;28;20090;-37
2022/10/31 09:25:13;;;;;;;8.65;2.60;;;;;;;30.56;24.98;100122.19;5049555;28;20052;-36
2022/10/31 09:27:39;;;;;;;6.78;3.00;;;;;;;31.18;23.45;100118.81;5049346;28;20024;-37
2022/10/31 09:30:05;;;;;;;7.78;2.65;;;;;;;31.38;23.94;100119.19;5049878;28;20060;-37
2022/10/31 09:32:30;;;;;;;5.63;2.78;;;;;;;31.69;23.65;100121.56;5049497;28;20112;-37
2022/10/31 09:34:55;;;;;;;7.28;2.55;;;;;;;31.98;23.12;100108.03;5050165;28;20104;-35
2022/10/31 09:37:21;;;;;;;7.32;3.00;;;;;;;32.04;22.92;100115.75;5050267;28;20025;-37
2022/10/31 09:39:46;;;;;;;6.55;2.50;;;;;;;32.02;22.93;100120.78;5050504;28;20063;-36
2022/10/31 09:42:30;;;;;;;5.63;2.95;;;;;;;31.80;23.24;100110.94;5050336;28;20033;-37
2022/10/31 09:45:10;;;;;;;11.75;5.65;;;;;;;31.54;23.37;100109.22;5050274;28;20032;-37
2022/10/31 09:48:06;;;;;;;6.65;3.40;;;;;;;32.00;23.37;100111.25;5050319;28;20024;-37
2022/10/31 09:50:43;;;;;;;7.35;2.67;;;;;;;31.50;23.49;100113.78;5049990;28;20112;-37
2022/10/31 09:53:21;;;;;;;9.80;2.90;;;;;;;31.51;23.44;100109.91;5050006;28;20503;-37
2022/10/31 09:55:49;;;;;;;5.03;2.38;;;;;;;31.77;23.11;100114.38;5049615;28;20043;-36
2022/10/31 09:58:19;;;;;;;4.00;2.08;;;;;;;31.87;23.19;100113.97;5050266;28;20048;-36
2022/10/31 10:00:47;;;;;;;7.20;3.20;;;;;;;31.65;23.12;100115.13;5050143;28;20457;-37
2022/10/31 10:03:26;;;;;;;5.18;2.70;;;;;;;31.27;23.20;100107.78;5050071;28;20104;-36
2022/10/31 10:06:01;;;;;;;5.88;2.70;;;;;;;31.55;22.96;100110.84;5050142;28;20056;-37
2022/10/31 10:08:31;;;;;;;8.10;2.25;;;;;;;31.18;23.01;100104.28;5049983;28;20412;-36
2022/10/31 10:11:22;;;;;;;4.78;2.30;;;;;;;30.59;23.20;100100.34;5049622;28;20036;-37
2022/10/31 10:13:47;;;;;;;;;;;;;;;31.13;23.45;100099.78;5050231;28;20021;-37
2022/10/31 10:16:44;;;;;;;7.25;2.70;;;;;;;31.37;23.06;100092.81;5049475;28;19908;-36
2022/10/31 10:19:26;;;;;;;10.65;3.30;;;;;;;31.16;23.70;100090.06;5052665;28;20039;-36
2022/10/31 10:22:15;;;;;;;5.90;2.38;;;;;;;30.67;24.15;100079.47;5069813;28;20028;-36
2022/10/31 10:25:02;;;;;;;10.03;2.60;;;;;;;31.10;24.00;100083.97;5070122;28;20045;-37
2022/10/31 10:27:39;;;;;;;7.97;2.50;;;;;;;31.21;23.63;100084.38;5069252;28;20486;-37
2022/10/31 10:30:18;;;;;;;7.57;2.25;;;;;;;31.62;23.17;100084.72;5064769;28;20020;-38
2022/10/31 10:32:56;;;;;;;7.10;2.30;;;;;;;32.01;22.71;100079.84;5045034;28;20033;-36
2022/10/31 10:35:27;;;;;;;5.50;2.20;;;;;;;32.09;22.58;100076.22;5047811;28;20017;-38
2022/10/31 10:38:00;;;;;;;9.63;2.50;;;;;;;32.11;22.59;100068.41;5049192;28;20271;-37
2022/10/31 10:40:27;;;;;;;7.00;2.80;;;;;;;31.80;23.01;100063.38;5048681;28;20361;-38
2022/10/31 10:43:24;;;;;;;10.48;2.50;;;;;;;31.67;22.54;100057.03;5048878;28;20021;-37
2022/10/31 10:48:50;;;;;;;6.32;2.47;;;;;;;30.89;23.56;100056.44;5048168;28;20114;-36
2022/10/31 10:51:22;;;;;;;5.00;2.10;;;;;;;30.33;24.02;100056.56;5047352;28;20028;-37
2022/10/31 10:54:13;;;;;;;5.22;2.08;;;;;;;29.94;24.52;100061.13;5044923;28;20451;-36
2022/10/31 10:56:58;;;;;;;6.13;2.30;;;;;;;30.66;24.46;100044.94;5048689;28;20473;-38
2022/10/31 10:59:23;;;;;;;7.10;2.20;;;;;;;31.17;23.74;100051.25;5047127;28;20131;-36
2022/10/31 11:01:51;;;;;;;5.63;2.00;;;;;;;31.63;23.19;100053.34;5049289;28;20515;-38
2022/10/31 11:04:36;;;;;;;6.57;2.10;;;;;;;31.41;23.37;100058.03;5049692;28;20041;-38
2022/10/31 11:07:07;;;;;;;5.90;2.08;;;;;;;31.18;23.85;100052.06;5052067;28;20021;-37
2022/10/31 11:09:34;;;;;;;6.22;2.25;;;;;;;31.32;23.78;100049.03;5053427;28;20032;-36
2022/10/31 11:12:09;;;;;;;6.80;2.10;;;;;;;31.15;23.76;100050.00;5053113;28;20033;-36
2022/10/31 11:14:51;;;;;;;4.60;1.85;;;;;;;31.62;23.65;100047.03;5051573;28;20025;-36
2022/10/31 11:17:29;;;;;;;6.90;2.38;;;;;;;31.51;23.39;100037.59;5051274;28;20099;-36
2022/10/31 11:20:13;;;;;;;5.47;2.13;;;;;;;31.30;23.29;100034.81;5050392;28;20028;-36
2022/10/31 11:22:46;;;;;;;5.25;2.33;;;;;;;31.52;23.47;100033.72;5051233;28;20047;-37
2022/10/31 11:25:23;;;;;;;4.25;2.10;;;;;;;31.80;22.88;100039.44;5051230;28;20048;-38
2022/10/31 11:28:08;;;;;;;4.90;2.15;;;;;;;31.94;23.02;100036.38;5050306;28;20013;-37
2022/10/31 11:31:08;;;;;;;5.55;2.35;;;;;;;32.48;21.90;100030.72;5050918;28;20028;-37
2022/10/31 11:33:45;;;;;;;4.97;1.88;;;;;;;32.45;22.15;100030.63;5046193;28;20029;-37
2022/10/31 11:36:24;;;;;;;4.63;2.08;;;;;;;32.30;22.50;100030.13;5050783;28;20442;-39
2022/10/31 11:38:51;;;;;;;6.95;2.35;;;;;;;32.56;22.13;100026.25;5050727;28;20323;-38
2022/10/31 11:41:27;;;;;;;6.50;2.22;;;;;;;32.68;22.14;100029.03;5052849;28;20021;-37